Terminal Aerodrome Forecast
Issued by NWS

Home | Current Version | Previous Version | Text Only | Print | Product List | Glossary On
Versions: 1 2 3 4 5 6 7 8 9 10 11 12 13 14 15 16 17 18 19
000
FTUS43 KSGF 260500
TAFBBG
TAF
KBBG 260520Z 2606/2706 33006KT P6SM SCT007 BKN017
     FM260800 34006KT 5SM BR OVC007
     FM261500 04006KT P6SM SCT007 OVC015
     FM261700 06010KT P6SM BKN025
     FM262000 07008KT P6SM BKN050
     FM270000 08007KT P6SM SKC=

USA.gov is the U.S. government's official web portal to all federal, state and local government web resources and services.